Time;durP1;ratioP1;P1;durP2;ratioP2;P2;SDS_P1;SDS_P2;PMS_P1;PMS_P2;Temp;Humidity;BMP_temperature;BMP_pressure;BME280_temperature;BME280_humidity;BME280_pressure;Samples;Min_cycle;Max_cycle;Signal;HPM_P1;HPM_P2
2023/06/09 00:00:33;;;;;;;4.30;3.90;;;22.10;90.10;;;;;;5038768;28;20537;-60
2023/06/09 00:02:59;;;;;;;5.03;4.63;;;22.20;90.10;;;;;;5039900;28;20471;-62
2023/06/09 00:05:32;;;;;;;5.13;3.97;;;22.10;90.00;;;;;;5038200;28;20457;-60
2023/06/09 00:07:58;;;;;;;4.90;4.00;;;22.10;90.00;;;;;;5037454;28;20454;-60
2023/06/09 00:10:25;;;;;;;3.90;3.60;;;22.10;90.00;;;;;;5042662;28;20450;-60
2023/06/09 00:12:52;;;;;;;4.40;4.10;;;22.20;90.10;;;;;;5039725;28;20977;-62
2023/06/09 00:15:19;;;;;;;5.03;4.60;;;22.20;90.00;;;;;;5046076;28;20450;-60
2023/06/09 00:17:46;;;;;;;3.60;3.30;;;22.10;90.00;;;;;;5040736;28;20465;-60
2023/06/09 00:20:14;;;;;;;4.23;3.80;;;22.10;90.00;;;;;;5040300;28;20470;-60
2023/06/09 00:22:44;;;;;;;4.03;3.73;;;22.10;90.00;;;;;;5042221;28;20839;-59
2023/06/09 00:25:12;;;;;;;5.57;4.57;;;22.10;90.00;;;;;;5044182;28;21005;-60
2023/06/09 00:27:39;;;;;;;4.30;3.90;;;22.20;90.00;;;;;;5036649;28;20500;-59
2023/06/09 00:30:08;;;;;;;4.07;3.67;;;22.10;89.90;;;;;;5035863;28;20542;-64
2023/06/09 00:32:35;;;;;;;4.00;3.70;;;22.10;90.00;;;;;;5044942;28;20563;-59
2023/06/09 00:35:01;;;;;;;4.25;3.85;;;22.20;89.90;;;;;;5041553;28;20466;-60
2023/06/09 00:37:28;;;;;;;5.03;3.67;;;22.10;89.90;;;;;;5041653;28;20302;-62
2023/06/09 00:39:57;;;;;;;4.27;3.97;;;22.10;89.80;;;;;;5041447;28;20658;-60
2023/06/09 00:42:24;;;;;;;4.10;3.70;;;22.10;89.80;;;;;;5032567;28;21065;-61
2023/06/09 00:44:50;;;;;;;4.60;4.20;;;22.10;89.70;;;;;;5038802;28;20467;-59
2023/06/09 00:47:17;;;;;;;4.00;3.67;;;22.20;89.80;;;;;;5035478;28;20961;-64
2023/06/09 00:49:44;;;;;;;4.40;4.00;;;22.10;89.70;;;;;;5041779;28;20461;-59
2023/06/09 00:52:11;;;;;;;4.63;4.33;;;22.20;89.70;;;;;;5040677;28;21030;-60
2023/06/09 00:54:39;;;;;;;3.77;3.57;;;22.10;89.60;;;;;;5044626;28;20880;-63
2023/06/09 00:57:08;;;;;;;3.20;3.00;;;22.20;89.70;;;;;;5041913;28;20480;-60
2023/06/09 00:59:35;;;;;;;3.90;3.60;;;22.20;89.70;;;;;;5032660;28;20519;-59
2023/06/09 01:02:03;;;;;;;3.60;3.30;;;22.20;89.70;;;;;;5044060;28;20198;-60
2023/06/09 01:04:32;;;;;;;4.40;4.00;;;22.20;89.70;;;;;;5038611;28;20463;-60
2023/06/09 01:07:07;;;;;;;4.17;3.87;;;22.10;89.60;;;;;;5039719;28;20814;-62
2023/06/09 01:09:38;;;;;;;3.70;3.40;;;22.10;89.50;;;;;;5047132;28;20464;-60
2023/06/09 01:12:14;;;;;;;3.37;3.17;;;22.10;89.50;;;;;;5039708;28;20779;-61
2023/06/09 01:14:47;;;;;;;3.43;3.23;;;22.10;89.50;;;;;;5037538;28;20519;-60
2023/06/09 01:17:18;;;;;;;3.80;3.50;;;22.10;89.50;;;;;;5040023;28;20458;-59
2023/06/09 01:19:48;;;;;;;4.13;3.72;;;22.10;89.50;;;;;;5036521;28;20461;-60
2023/06/09 01:22:25;;;;;;;3.90;3.10;;;22.10;89.30;;;;;;5044319;28;20187;-60
2023/06/09 01:25:04;;;;;;;4.25;3.95;;;22.10;89.30;;;;;;5043609;28;20539;-60
2023/06/09 01:27:36;;;;;;;4.33;4.03;;;22.10;89.40;;;;;;5047256;28;20283;-64
2023/06/09 01:30:03;;;;;;;5.63;3.73;;;22.10;89.30;;;;;;5034747;28;20727;-60
2023/06/09 01:32:32;;;;;;;4.00;3.70;;;22.10;89.30;;;;;;5041309;28;20482;-60
2023/06/09 01:34:59;;;;;;;3.90;3.60;;;22.20;89.40;;;;;;5041087;28;20191;-59
2023/06/09 01:37:26;;;;;;;3.35;3.13;;;22.10;89.30;;;;;;5049673;28;20457;-61
2023/06/09 01:39:53;;;;;;;3.77;3.47;;;22.10;89.30;;;;;;5047199;28;20579;-61
2023/06/09 01:42:20;;;;;;;3.80;3.60;;;22.10;89.20;;;;;;5053978;28;20461;-60
2023/06/09 01:44:48;;;;;;;4.20;3.80;;;22.20;89.30;;;;;;5047785;28;20466;-60
2023/06/09 01:47:15;;;;;;;4.30;4.00;;;22.20;89.30;;;;;;5050181;28;21192;-59
2023/06/09 01:49:48;;;;;;;4.07;3.77;;;22.20;89.30;;;;;;5050266;28;20889;-59
2023/06/09 01:52:21;;;;;;;4.03;3.50;;;22.20;89.30;;;;;;5048696;28;20461;-59
2023/06/09 01:54:55;;;;;;;4.47;3.55;;;22.10;89.10;;;;;;5051490;28;20830;-59
2023/06/09 01:57:30;;;;;;;3.00;2.70;;;22.20;89.30;;;;;;5051823;28;20195;-59
2023/06/09 02:00:01;;;;;;;4.00;3.70;;;22.20;89.20;;;;;;5050750;28;20536;-59
2023/06/09 02:02:31;;;;;;;3.70;3.40;;;22.10;89.10;;;;;;5048396;28;20206;-60
2023/06/09 02:04:59;;;;;;;3.45;3.25;;;22.10;89.10;;;;;;5046608;28;20449;-62
2023/06/09 02:07:27;;;;;;;4.15;3.78;;;22.10;89.10;;;;;;5052904;28;20199;-60
2023/06/09 02:09:55;;;;;;;3.87;3.57;;;22.20;89.20;;;;;;5053701;28;20199;-60
2023/06/09 02:12:22;;;;;;;3.70;3.40;;;22.20;89.20;;;;;;5050402;28;20903;-62
2023/06/09 02:14:48;;;;;;;3.80;3.50;;;22.10;89.10;;;;;;5046017;28;20461;-59
2023/06/09 02:17:17;;;;;;;3.33;3.13;;;22.10;89.00;;;;;;5044691;28;20469;-61
2023/06/09 02:19:45;;;;;;;3.90;3.60;;;22.10;89.00;;;;;;5049821;28;20396;-60
2023/06/09 02:22:12;;;;;;;4.30;3.90;;;22.20;89.10;;;;;;5048406;28;20540;-59
2023/06/09 02:24:38;;;;;;;3.50;3.22;;;22.10;89.00;;;;;;5048839;28;20912;-60
2023/06/09 02:27:06;;;;;;;3.30;3.10;;;22.20;89.10;;;;;;5051011;28;20195;-61
2023/06/09 02:29:33;;;;;;;3.30;3.10;;;22.10;89.00;;;;;;5047777;28;20453;-61
2023/06/09 02:32:01;;;;;;;3.43;3.13;;;22.10;88.90;;;;;;5045273;28;20462;-60
2023/06/09 02:34:30;;;;;;;3.80;3.50;;;22.20;89.00;;;;;;5045240;28;20560;-60
2023/06/09 02:36:59;;;;;;;3.60;3.30;;;22.10;88.90;;;;;;5047356;28;20461;-63
2023/06/09 02:39:26;;;;;;;4.10;3.80;;;22.10;88.90;;;;;;5050126;28;20863;-62
2023/06/09 02:41:53;;;;;;;3.57;3.30;;;22.10;88.90;;;;;;5042580;28;20476;-59
2023/06/09 02:44:19;;;;;;;3.00;2.80;;;22.20;89.00;;;;;;5041264;28;20498;-59
2023/06/09 02:46:46;;;;;;;3.60;3.30;;;22.20;89.00;;;;;;5043430;28;20454;-62
2023/06/09 02:49:13;;;;;;;3.37;3.17;;;22.10;88.90;;;;;;5039175;28;20982;-62
2023/06/09 02:51:41;;;;;;;3.40;3.20;;;22.10;88.90;;;;;;5042051;28;20462;-59
2023/06/09 02:54:07;;;;;;;4.27;2.90;;;22.10;88.80;;;;;;5047142;28;20490;-59
2023/06/09 02:56:35;;;;;;;3.13;2.92;;;22.10;88.80;;;;;;5051827;28;20461;-62
2023/06/09 02:59:02;;;;;;;3.60;3.30;;;22.10;88.80;;;;;;5036411;28;20623;-61
2023/06/09 03:01:35;;;;;;;3.67;3.37;;;22.10;88.90;;;;;;5042358;28;20458;-60
2023/06/09 03:04:02;;;;;;;3.70;3.40;;;22.10;88.80;;;;;;5032905;28;20541;-63
2023/06/09 03:06:32;;;;;;;3.83;3.53;;;22.10;88.80;;;;;;5033221;28;20476;-59
2023/06/09 03:09:01;;;;;;;3.53;3.23;;;22.10;88.80;;;;;;5037547;28;20660;-59
2023/06/09 03:11:27;;;;;;;3.67;3.40;;;22.10;88.70;;;;;;5041718;28;20473;-59
2023/06/09 03:13:54;;;;;;;3.08;2.88;;;22.10;88.80;;;;;;5044476;28;20481;-59
2023/06/09 03:16:21;;;;;;;2.93;2.73;;;22.10;88.80;;;;;;5042904;28;20277;-60
2023/06/09 03:18:48;;;;;;;3.30;3.00;;;22.10;88.70;;;;;;5045510;28;20992;-61
2023/06/09 03:21:14;;;;;;;4.20;3.17;;;22.10;88.70;;;;;;5045016;28;20480;-64
2023/06/09 03:23:41;;;;;;;3.23;3.03;;;22.20;88.80;;;;;;5044716;28;20487;-61
2023/06/09 03:26:09;;;;;;;3.33;3.10;;;22.10;88.70;;;;;;5047177;28;20458;-60
2023/06/09 03:28:36;;;;;;;3.13;2.80;;;22.10;88.60;;;;;;5041265;28;20458;-60
2023/06/09 03:31:04;;;;;;;3.00;2.80;;;22.10;88.70;;;;;;5035925;28;20530;-62
2023/06/09 03:33:30;;;;;;;3.35;3.15;;;22.10;88.70;;;;;;5041997;28;20215;-62
2023/06/09 03:35:57;;;;;;;3.92;3.60;;;22.10;88.70;;;;;;5048190;28;20663;-60
2023/06/09 03:38:24;;;;;;;3.50;3.30;;;22.10;88.70;;;;;;5038307;28;20407;-60
2023/06/09 03:40:50;;;;;;;3.47;3.22;;;22.10;88.70;;;;;;5043246;28;20450;-61
2023/06/09 03:43:18;;;;;;;3.42;3.22;;;22.10;88.70;;;;;;5049718;28;20203;-60
2023/06/09 03:45:45;;;;;;;3.60;3.30;;;22.10;88.60;;;;;;5041398;28;20199;-62
2023/06/09 03:48:12;;;;;;;3.07;2.87;;;22.10;88.60;;;;;;5044637;28;20953;-60
2023/06/09 03:50:40;;;;;;;3.47;3.27;;;22.10;88.70;;;;;;5046015;28;20481;-60
2023/06/09 03:53:07;;;;;;;3.10;2.90;;;22.10;88.60;;;;;;5045474;28;20478;-62
2023/06/09 03:55:34;;;;;;;2.73;2.53;;;22.10;88.60;;;;;;5047384;28;20466;-60
2023/06/09 03:58:01;;;;;;;3.40;3.10;;;22.10;88.60;;;;;;5042418;28;20533;-61
2023/06/09 04:00:29;;;;;;;3.60;3.30;;;22.10;88.60;;;;;;5047267;28;20454;-61
2023/06/09 04:02:59;;;;;;;4.07;3.77;;;22.10;88.60;;;;;;5039883;28;20454;-64
2023/06/09 04:05:26;;;;;;;3.10;2.80;;;22.10;88.60;;;;;;5040842;28;20515;-60
2023/06/09 04:07:53;;;;;;;2.80;2.60;;;22.10;88.60;;;;;;5041491;28;20537;-62
2023/06/09 04:10:20;;;;;;;4.15;3.58;;;22.10;88.60;;;;;;5042123;28;21092;-60
2023/06/09 04:12:47;;;;;;;3.33;3.00;;;22.10;88.60;;;;;;5039074;28;20199;-60
2023/06/09 04:15:13;;;;;;;3.60;3.37;;;22.10;88.50;;;;;;5039266;28;20648;-63
2023/06/09 04:17:41;;;;;;;2.90;2.70;;;22.10;88.50;;;;;;5045584;28;20470;-63
2023/06/09 04:20:09;;;;;;;2.47;2.27;;;22.10;88.50;;;;;;5038917;28;20203;-60
2023/06/09 04:22:36;;;;;;;3.15;2.90;;;22.10;88.50;;;;;;5040375;28;20477;-62
2023/06/09 04:25:03;;;;;;;4.30;3.87;;;22.10;88.50;;;;;;5037633;28;20310;-60
2023/06/09 04:27:30;;;;;;;2.60;2.40;;;22.10;88.50;;;;;;5044237;28;20861;-61
2023/06/09 04:29:58;;;;;;;2.97;2.73;;;22.10;88.50;;;;;;5041898;28;20220;-62
2023/06/09 04:32:25;;;;;;;3.33;3.13;;;22.10;88.50;;;;;;5044985;28;20596;-61
2023/06/09 04:34:53;;;;;;;3.43;3.13;;;22.10;88.50;;;;;;5039838;28;22361;-62
2023/06/09 04:37:20;;;;;;;2.80;2.60;;;22.10;88.50;;;;;;5039830;28;21042;-60
2023/06/09 04:39:47;;;;;;;3.17;2.97;;;22.10;88.40;;;;;;5046126;28;20465;-60
2023/06/09 04:42:19;;;;;;;2.50;2.30;;;22.10;88.40;;;;;;5045145;28;20453;-62
2023/06/09 04:44:47;;;;;;;3.17;2.90;;;22.10;88.50;;;;;;5036741;28;20203;-62
2023/06/09 04:47:17;;;;;;;3.28;3.08;;;22.10;88.50;;;;;;5039933;28;20826;-64
2023/06/09 04:49:46;;;;;;;2.53;2.33;;;22.10;88.50;;;;;;5042907;28;20605;-60
2023/06/09 04:52:17;;;;;;;3.17;2.90;;;22.10;88.40;;;;;;5044190;28;20508;-60
2023/06/09 04:54:44;;;;;;;3.00;2.80;;;22.10;88.40;;;;;;5039802;28;20219;-60
2023/06/09 04:57:11;;;;;;;3.30;3.10;;;22.10;88.50;;;;;;5041117;28;20484;-61
2023/06/09 04:59:39;;;;;;;3.13;2.93;;;22.10;88.40;;;;;;5037365;28;20999;-60
2023/06/09 05:02:06;;;;;;;3.00;2.80;;;22.10;88.50;;;;;;5040151;28;20454;-60
2023/06/09 05:04:33;;;;;;;2.60;2.40;;;22.10;88.40;;;;;;5037225;28;20458;-60
2023/06/09 05:07:00;;;;;;;3.10;2.90;;;22.10;88.40;;;;;;5041128;28;21211;-60
2023/06/09 05:09:29;;;;;;;2.90;2.70;;;22.10;88.50;;;;;;5035396;28;20821;-60
2023/06/09 05:11:55;;;;;;;2.73;2.53;;;22.10;88.40;;;;;;5036443;28;20533;-60
2023/06/09 05:14:22;;;;;;;2.70;2.50;;;22.00;88.20;;;;;;5044218;28;20488;-62
2023/06/09 05:16:49;;;;;;;2.97;2.77;;;22.00;88.30;;;;;;5039905;28;20467;-61
2023/06/09 05:19:15;;;;;;;2.80;2.60;;;22.10;88.40;;;;;;5045041;28;20465;-60
2023/06/09 05:21:45;;;;;;;2.73;2.53;;;22.10;88.40;;;;;;5042408;28;20469;-61
2023/06/09 05:24:12;;;;;;;3.58;3.38;;;22.00;88.20;;;;;;5040726;28;20531;-62
2023/06/09 05:26:40;;;;;;;3.00;2.80;;;22.10;88.40;;;;;;5042033;28;20668;-63
2023/06/09 05:29:06;;;;;;;2.90;2.70;;;22.00;88.20;;;;;;5036007;28;20954;-61
2023/06/09 05:31:33;;;;;;;3.10;2.90;;;22.00;88.30;;;;;;5041615;28;20191;-61
2023/06/09 05:34:00;;;;;;;3.47;3.22;;;22.00;88.20;;;;;;5038671;28;21584;-62
2023/06/09 05:36:26;;;;;;;3.20;3.00;;;22.00;88.20;;;;;;5037209;28;20235;-61
2023/06/09 05:38:53;;;;;;;3.00;2.80;;;22.10;88.20;;;;;;5039240;28;20192;-65
2023/06/09 05:41:20;;;;;;;3.10;2.90;;;22.00;88.20;;;;;;5035657;28;20263;-63
2023/06/09 05:43:48;;;;;;;3.33;3.03;;;22.00;88.20;;;;;;5042392;28;20459;-60
2023/06/09 05:46:15;;;;;;;3.57;3.37;;;22.00;88.90;;;;;;5039263;28;20455;-60
2023/06/09 05:48:42;;;;;;;3.80;3.50;;;22.10;88.20;;;;;;5041470;28;20458;-63
2023/06/09 05:51:08;;;;;;;3.50;3.27;;;22.00;88.10;;;;;;5042548;28;20200;-61
2023/06/09 05:53:35;;;;;;;3.70;3.40;;;22.00;88.20;;;;;;5041443;28;20446;-60
2023/06/09 05:56:02;;;;;;;2.93;2.73;;;22.10;88.20;;;;;;5041991;28;21008;-61
2023/06/09 05:58:33;;;;;;;3.22;3.03;;;22.00;88.10;;;;;;5041342;28;20465;-60
2023/06/09 06:01:03;;;;;;;3.60;3.30;;;22.00;88.10;;;;;;5037067;28;20679;-61
2023/06/09 06:03:31;;;;;;;2.73;2.53;;;22.00;88.00;;;;;;5036935;28;20513;-60
2023/06/09 06:05:58;;;;;;;3.33;3.03;;;22.10;88.10;;;;;;5041756;28;20502;-61
2023/06/09 06:08:25;;;;;;;2.70;2.50;;;22.10;88.80;;;;;;5042385;28;20889;-60
2023/06/09 06:10:52;;;;;;;3.40;3.10;;;22.10;88.00;;;;;;5040001;28;20465;-60
2023/06/09 06:13:18;;;;;;;3.15;2.95;;;22.10;88.00;;;;;;5037792;28;20458;-64
2023/06/09 06:15:46;;;;;;;3.17;2.97;;;22.10;87.90;;;;;;5030715;28;20224;-61
2023/06/09 06:18:14;;;;;;;2.93;2.73;;;22.10;88.60;;;;;;5040530;28;20558;-62
2023/06/09 06:20:41;;;;;;;3.40;3.20;;;22.10;87.90;;;;;;5042580;28;21091;-60
2023/06/09 06:23:08;;;;;;;2.60;2.40;;;22.10;87.90;;;;;;5037639;28;20537;-59
2023/06/09 06:25:36;;;;;;;3.05;2.85;;;22.10;87.80;;;;;;5045854;28;20647;-60
2023/06/09 06:28:03;;;;;;;3.78;3.47;;;22.20;87.90;;;;;;5045249;28;20269;-59
2023/06/09 06:30:30;;;;;;;3.17;2.97;;;22.20;87.90;;;;;;5042152;28;20273;-59
2023/06/09 06:32:57;;;;;;;3.20;3.00;;;22.10;87.80;;;;;;5041027;28;20531;-61
2023/06/09 06:35:29;;;;;;;3.50;3.27;;;22.10;87.80;;;;;;5044347;28;20485;-61
2023/06/09 06:37:58;;;;;;;3.37;3.10;;;22.20;88.00;;;;;;5044327;28;20532;-62
2023/06/09 06:40:26;;;;;;;3.10;2.90;;;22.20;87.90;;;;;;5037336;28;20465;-59
2023/06/09 06:42:53;;;;;;;2.90;2.70;;;22.20;87.90;;;;;;5043767;28;20761;-60
2023/06/09 06:45:20;;;;;;;4.00;3.70;;;22.20;87.90;;;;;;5043430;28;20872;-59
2023/06/09 06:47:49;;;;;;;3.10;2.90;;;22.20;88.00;;;;;;5044886;28;20461;-60
2023/06/09 06:50:16;;;;;;;3.03;2.83;;;22.20;87.90;;;;;;5044896;28;20528;-60
2023/06/09 06:52:44;;;;;;;4.10;3.80;;;22.20;87.90;;;;;;5043718;28;20465;-60
2023/06/09 06:55:11;;;;;;;3.33;3.03;;;22.20;87.90;;;;;;5047721;28;20840;-60
2023/06/09 06:57:39;;;;;;;2.80;2.60;;;22.20;87.90;;;;;;5044843;28;20451;-59
2023/06/09 07:00:10;;;;;;;6.70;5.43;;;22.20;87.90;;;;;;5043500;28;21504;-58
2023/06/09 07:02:37;;;;;;;5.70;5.20;;;22.30;89.70;;;;;;5045019;28;20516;-60
2023/06/09 07:05:06;;;;;;;4.80;4.50;;;22.30;90.00;;;;;;5045468;28;20874;-59
2023/06/09 07:07:33;;;;;;;3.70;3.40;;;22.30;90.00;;;;;;5048239;28;20477;-61
2023/06/09 07:10:01;;;;;;;5.00;4.70;;;22.30;89.90;;;;;;5046225;28;20457;-59
2023/06/09 07:12:28;;;;;;;5.50;5.00;;;22.30;90.10;;;;;;5043239;28;20454;-60
2023/06/09 07:14:55;;;;;;;5.60;5.13;;;22.30;90.20;;;;;;5040958;28;20539;-59
2023/06/09 07:17:22;;;;;;;6.60;6.00;;;22.30;90.30;;;;;;5039803;28;20481;-59
2023/06/09 07:19:48;;;;;;;6.40;5.83;;;22.30;90.20;;;;;;5045416;28;20480;-59
2023/06/09 07:22:16;;;;;;;4.50;4.20;;;22.30;90.20;;;;;;5045355;28;20469;-60
2023/06/09 07:24:43;;;;;;;6.50;4.80;;;22.30;90.10;;;;;;5046068;28;20509;-61
2023/06/09 07:27:11;;;;;;;5.77;5.20;;;22.30;90.30;;;;;;5041296;28;21014;-61
2023/06/09 07:29:41;;;;;;;6.70;5.93;;;22.30;90.40;;;;;;5040685;28;20462;-61
2023/06/09 07:32:09;;;;;;;6.60;5.93;;;22.30;90.40;;;;;;5043404;28;20858;-63
2023/06/09 07:34:37;;;;;;;5.07;4.57;;;22.30;90.50;;;;;;5043815;28;20492;-58
2023/06/09 07:37:04;;;;;;;6.30;5.27;;;22.30;90.50;;;;;;5040462;28;20455;-60
2023/06/09 07:39:31;;;;;;;8.00;5.57;;;22.30;90.40;;;;;;5047149;28;20466;-61
2023/06/09 07:41:58;;;;;;;5.77;5.20;;;22.30;90.40;;;;;;5045389;28;20469;-60
2023/06/09 07:44:26;;;;;;;4.70;4.30;;;22.40;90.40;;;;;;5039574;28;20458;-60
2023/06/09 07:46:53;;;;;;;5.70;5.20;;;22.30;90.20;;;;;;5048282;28;20465;-60
2023/06/09 07:49:19;;;;;;;4.97;4.47;;;22.30;90.10;;;;;;5042931;28;20467;-60
2023/06/09 07:51:49;;;;;;;4.67;4.37;;;22.30;90.10;;;;;;5050716;28;20803;-59
2023/06/09 07:54:16;;;;;;;4.83;4.43;;;22.40;90.30;;;;;;5040806;28;20474;-60
2023/06/09 07:56:48;;;;;;;4.93;4.53;;;22.40;90.50;;;;;;5049946;28;20818;-60
2023/06/09 07:59:15;;;;;;;5.33;4.80;;;22.40;90.10;;;;;;5041336;28;20566;-63
2023/06/09 08:01:43;;;;;;;5.03;4.53;;;22.40;90.10;;;;;;5044771;28;20462;-61
2023/06/09 08:04:10;;;;;;;5.13;4.73;;;22.40;90.10;;;;;;5049201;28;20458;-60
2023/06/09 08:06:37;;;;;;;5.20;4.80;;;22.40;90.10;;;;;;5047096;28;20438;-59
2023/06/09 08:09:04;;;;;;;5.57;4.70;;;22.40;90.10;;;;;;5042453;28;20465;-60
2023/06/09 08:11:31;;;;;;;5.90;5.40;;;22.40;90.10;;;;;;5040815;28;20525;-59
2023/06/09 08:13:57;;;;;;;5.63;5.07;;;22.40;90.30;;;;;;5045594;28;20601;-62
2023/06/09 08:16:24;;;;;;;7.73;5.30;;;22.40;90.40;;;;;;5039796;28;20518;-60
2023/06/09 08:18:52;;;;;;;4.83;4.40;;;22.40;90.30;;;;;;5043889;28;20489;-59
2023/06/09 08:21:19;;;;;;;6.50;5.47;;;22.40;90.10;;;;;;5041744;28;21038;-60
2023/06/09 08:23:45;;;;;;;5.37;5.00;;;22.40;90.00;;;;;;5044269;28;20484;-61
2023/06/09 08:26:12;;;;;;;4.83;4.43;;;22.40;90.00;;;;;;5041481;28;20504;-60
2023/06/09 08:28:39;;;;;;;4.83;4.43;;;22.40;89.80;;;;;;5044013;28;20465;-62
2023/06/09 08:31:06;;;;;;;5.00;4.60;;;22.40;90.00;;;;;;5042032;28;20473;-62
2023/06/09 08:33:34;;;;;;;5.50;5.10;;;22.50;90.30;;;;;;5048382;28;20451;-60
2023/06/09 08:36:03;;;;;;;5.10;4.60;;;22.50;90.50;;;;;;5040962;28;20485;-64
2023/06/09 08:38:32;;;;;;;5.63;5.13;;;22.50;90.30;;;;;;5043131;28;20458;-60
2023/06/09 08:41:05;;;;;;;5.03;4.63;;;22.50;90.30;;;;;;5044921;28;20525;-60
2023/06/09 08:43:32;;;;;;;5.57;4.63;;;22.50;90.30;;;;;;5044352;28;20462;-63
2023/06/09 08:46:01;;;;;;;4.70;4.40;;;22.50;90.30;;;;;;5035653;28;20466;-60
2023/06/09 08:48:28;;;;;;;5.07;4.67;;;22.50;90.30;;;;;;5038212;28;20454;-60
2023/06/09 08:50:56;;;;;;;4.93;4.53;;;22.50;90.20;;;;;;5048208;28;20545;-60
2023/06/09 08:53:24;;;;;;;5.80;5.40;;;22.50;90.10;;;;;;5045469;28;20470;-60
2023/06/09 08:55:53;;;;;;;4.77;4.40;;;22.50;90.20;;;;;;5034362;28;20978;-60
2023/06/09 08:58:22;;;;;;;4.30;4.00;;;22.50;90.10;;;;;;5036110;28;20463;-62
2023/06/09 09:00:49;;;;;;;4.53;4.13;;;22.50;90.10;;;;;;5039907;28;20541;-59
2023/06/09 09:03:17;;;;;;;4.73;4.40;;;22.50;90.00;;;;;;5047097;28;20877;-61
2023/06/09 09:05:44;;;;;;;6.40;3.90;;;22.50;90.00;;;;;;5035821;28;20485;-60
2023/06/09 09:08:11;;;;;;;5.27;4.77;;;22.50;90.00;;;;;;5039444;28;20549;-63
2023/06/09 09:10:41;;;;;;;5.63;5.13;;;22.50;90.00;;;;;;5038959;28;21076;-61
2023/06/09 09:13:10;;;;;;;4.90;4.47;;;22.60;90.00;;;;;;5041058;28;20454;-62
2023/06/09 09:15:38;;;;;;;4.70;4.33;;;22.60;90.00;;;;;;5041299;28;20897;-60
2023/06/09 09:18:07;;;;;;;4.70;4.13;;;22.50;89.90;;;;;;5047234;28;20504;-62
2023/06/09 09:20:35;;;;;;;4.87;4.40;;;22.50;89.90;;;;;;5045820;28;20556;-60
2023/06/09 09:23:04;;;;;;;4.97;4.57;;;22.50;90.00;;;;;;5049901;28;20511;-60
2023/06/09 09:25:31;;;;;;;4.60;4.13;;;22.50;90.00;;;;;;5042580;28;20512;-63
2023/06/09 09:28:04;;;;;;;5.30;4.90;;;22.60;90.00;;;;;;5036536;28;20474;-60
2023/06/09 09:30:45;;;;;;;5.20;4.80;;;22.60;90.10;;;;;;5037457;28;20457;-61
2023/06/09 09:33:13;;;;;;;4.80;4.40;;;22.60;90.10;;;;;;5047462;28;20522;-61
2023/06/09 09:35:43;;;;;;;6.50;5.00;;;22.60;90.10;;;;;;5044167;28;20494;-61
2023/06/09 09:38:16;;;;;;;6.80;4.83;;;22.60;90.10;;;;;;5044341;28;20450;-61
2023/06/09 09:40:44;;;;;;;4.87;4.47;;;22.60;90.00;;;;;;5039996;28;20465;-61
2023/06/09 09:43:13;;;;;;;4.53;4.20;;;22.60;89.90;;;;;;5042811;28;20957;-62
2023/06/09 09:45:44;;;;;;;5.97;5.00;;;22.60;89.90;;;;;;5043535;28;20458;-61
2023/06/09 09:48:12;;;;;;;5.20;4.70;;;22.60;90.00;;;;;;5041525;28;20453;-62
2023/06/09 09:50:40;;;;;;;5.40;4.90;;;22.60;90.10;;;;;;5042798;28;20462;-61
2023/06/09 09:53:07;;;;;;;5.40;4.93;;;22.60;90.10;;;;;;5042451;28;20470;-61
2023/06/09 09:55:36;;;;;;;5.80;5.20;;;22.60;90.10;;;;;;5047757;28;20497;-61
2023/06/09 09:58:06;;;;;;;4.80;4.50;;;22.60;90.00;;;;;;5051310;28;20799;-61
2023/06/09 10:00:36;;;;;;;6.20;5.60;;;22.60;90.10;;;;;;5041141;28;20486;-62
2023/06/09 10:03:08;;;;;;;6.27;5.70;;;22.60;90.10;;;;;;5039548;28;20933;-62
2023/06/09 10:05:37;;;;;;;7.23;5.20;;;22.60;90.20;;;;;;5045172;28;20524;-61
2023/06/09 10:08:06;;;;;;;5.70;5.20;;;22.60;90.10;;;;;;5047546;28;20469;-61
2023/06/09 10:10:34;;;;;;;5.67;4.50;;;22.60;90.10;;;;;;5048004;28;20885;-61
2023/06/09 10:13:03;;;;;;;6.60;6.10;;;22.60;90.10;;;;;;5044273;28;20485;-60
2023/06/09 10:15:30;;;;;;;6.27;5.13;;;22.60;90.10;;;;;;5052274;28;20568;-61
2023/06/09 10:17:59;;;;;;;5.50;5.10;;;22.60;90.10;;;;;;5051095;28;20450;-62
2023/06/09 10:20:26;;;;;;;5.77;5.17;;;22.60;90.40;;;;;;5049024;28;20461;-62
2023/06/09 10:22:54;;;;;;;7.33;5.27;;;22.60;90.00;;;;;;5043737;28;20458;-61
2023/06/09 10:25:22;;;;;;;7.97;6.07;;;22.60;90.00;;;;;;5041261;28;20839;-61
2023/06/09 10:27:51;;;;;;;5.10;4.67;;;22.70;90.00;;;;;;5047431;28;20457;-61
2023/06/09 10:30:18;;;;;;;9.50;5.57;;;22.60;90.00;;;;;;5048783;28;20568;-62
2023/06/09 10:32:52;;;;;;;5.70;5.27;;;22.70;90.00;;;;;;5042664;28;20461;-61
2023/06/09 10:35:25;;;;;;;6.90;6.30;;;22.60;90.00;;;;;;5045893;28;20454;-63
2023/06/09 10:37:52;;;;;;;6.10;5.47;;;22.70;90.00;;;;;;5049465;28;20539;-61
2023/06/09 10:40:26;;;;;;;4.80;4.40;;;22.70;90.00;;;;;;5050095;28;20966;-63
2023/06/09 10:43:04;;;;;;;6.63;5.00;;;22.60;90.00;;;;;;5048670;28;20461;-61
2023/06/09 10:45:51;;;;;;;5.23;4.83;;;22.60;90.00;;;;;;5046063;28;20457;-61
2023/06/09 10:48:45;;;;;;;5.00;4.50;;;22.60;90.00;;;;;;5045457;28;20585;-61
2023/06/09 10:51:44;;;;;;;7.00;4.73;;;22.70;90.00;;;;;;5039201;28;20464;-61
2023/06/09 10:54:22;;;;;;;5.27;4.80;;;22.70;90.10;;;;;;4971874;28;20441;-62
2023/06/09 10:56:53;;;;;;;6.30;5.00;;;22.60;90.00;;;;;;5034596;28;20553;-62
2023/06/09 10:59:53;;;;;;;5.47;5.00;;;22.60;90.00;;;;;;5046823;28;20453;-61
2023/06/09 11:02:23;;;;;;;4.80;4.40;;;22.70;90.10;;;;;;5045311;28;20466;-62
2023/06/09 11:04:52;;;;;;;6.00;5.50;;;22.70;90.10;;;;;;5046853;28;20973;-62
2023/06/09 11:07:22;;;;;;;5.70;5.20;;;22.60;90.00;;;;;;5042939;28;20963;-62
2023/06/09 11:10:33;;;;;;;4.90;4.50;;;22.60;90.00;;;;;;5051487;28;20458;-62
2023/06/09 11:13:00;;;;;;;4.97;4.57;;;22.60;90.00;;;;;;5043617;28;20492;-62
2023/06/09 11:16:04;;;;;;;5.80;5.33;;;22.60;90.00;;;;;;5056826;28;20598;-62
2023/06/09 11:18:32;;;;;;;5.30;4.80;;;22.70;90.10;;;;;;5046729;28;20970;-62
2023/06/09 11:21:09;;;;;;;5.03;4.50;;;22.60;90.00;;;;;;5051255;28;20958;-62
2023/06/09 11:24:00;;;;;;;6.73;5.20;;;22.60;90.00;;;;;;5034925;28;20576;-60
2023/06/09 11:26:27;;;;;;;8.90;5.77;;;22.70;90.10;;;;;;5041344;28;20544;-62
2023/06/09 11:28:54;;;;;;;4.60;4.20;;;22.60;90.00;;;;;;5032252;28;20461;-60
2023/06/09 11:31:21;;;;;;;4.77;4.47;;;22.60;90.00;;;;;;5036682;28;20476;-62
2023/06/09 11:33:53;;;;;;;4.40;4.07;;;22.60;90.00;;;;;;5027263;28;20460;-61
2023/06/09 11:36:22;;;;;;;5.00;4.50;;;22.70;90.00;;;;;;5047111;28;20478;-60
2023/06/09 11:38:50;;;;;;;4.90;4.50;;;22.70;90.00;;;;;;5047817;28;20462;-60
2023/06/09 11:41:24;;;;;;;4.47;4.07;;;22.70;90.00;;;;;;5046383;28;20469;-61
2023/06/09 11:43:52;;;;;;;5.27;4.80;;;22.60;90.10;;;;;;5040248;28;20962;-62
2023/06/09 11:46:19;;;;;;;4.10;3.80;;;22.70;90.10;;;;;;5043136;28;20466;-62
2023/06/09 11:49:05;;;;;;;5.03;4.67;;;22.60;90.00;;;;;;5051956;28;20458;-62
2023/06/09 11:51:52;;;;;;;5.40;5.00;;;22.60;90.10;;;;;;5043366;28;20458;-59
2023/06/09 11:54:19;;;;;;;4.70;4.30;;;22.70;90.10;;;;;;5042042;28;20461;-62
2023/06/09 11:56:48;;;;;;;7.50;5.27;;;22.70;90.10;;;;;;5040932;28;21007;-61
2023/06/09 11:59:18;;;;;;;4.97;4.57;;;22.70;90.10;;;;;;5045174;28;20949;-61
2023/06/09 12:01:44;;;;;;;5.43;5.00;;;22.60;90.10;;;;;;5050628;28;20450;-61
2023/06/09 12:04:11;;;;;;;4.47;4.10;;;22.70;90.10;;;;;;5043503;28;20458;-62
2023/06/09 12:06:38;;;;;;;4.40;4.00;;;22.70;90.10;;;;;;5046875;28;20457;-61
2023/06/09 12:09:18;;;;;;;4.63;4.27;;;22.70;90.10;;;;;;5049287;28;20462;-62
2023/06/09 12:11:54;;;;;;;4.03;3.73;;;22.60;90.10;;;;;;5052277;28;20886;-61
2023/06/09 12:14:21;;;;;;;4.50;4.10;;;22.70;90.10;;;;;;5040024;28;20462;-62
2023/06/09 12:16:48;;;;;;;4.10;3.80;;;22.60;90.10;;;;;;5041068;28;20531;-61
2023/06/09 12:19:15;;;;;;;6.30;5.70;;;22.70;90.10;;;;;;5048241;28;20964;-63
2023/06/09 12:21:42;;;;;;;4.57;4.20;;;22.70;90.20;;;;;;5046066;28;20462;-63
2023/06/09 12:24:12;;;;;;;5.20;4.80;;;22.70;90.10;;;;;;5049921;28;20470;-63
2023/06/09 12:26:39;;;;;;;5.83;4.60;;;22.70;90.10;;;;;;5049639;28;21065;-63
2023/06/09 12:29:08;;;;;;;5.47;5.03;;;22.70;90.10;;;;;;5041931;28;20456;-63
2023/06/09 12:31:35;;;;;;;6.63;5.00;;;22.70;90.10;;;;;;5041212;28;20515;-65
2023/06/09 12:34:02;;;;;;;5.47;5.00;;;22.70;90.20;;;;;;5037869;28;20545;-63
2023/06/09 12:36:28;;;;;;;4.43;4.03;;;22.70;90.10;;;;;;5038536;28;20486;-63
2023/06/09 12:38:55;;;;;;;5.43;5.03;;;22.70;90.10;;;;;;5038380;28;20831;-62
2023/06/09 12:41:22;;;;;;;5.00;4.63;;;22.70;90.20;;;;;;5046799;28;20925;-63
2023/06/09 12:43:51;;;;;;;5.20;4.80;;;22.70;90.20;;;;;;5041795;28;20458;-63
2023/06/09 12:46:28;;;;;;;5.23;4.80;;;22.70;90.20;;;;;;5044208;28;20553;-63
2023/06/09 12:48:56;;;;;;;5.30;4.90;;;22.70;90.20;;;;;;5046512;28;20468;-62
2023/06/09 12:51:23;;;;;;;4.67;4.20;;;22.70;90.20;;;;;;5045744;28;20465;-63
2023/06/09 12:53:50;;;;;;;4.63;4.30;;;22.70;90.30;;;;;;5037925;28;20823;-63
2023/06/09 12:56:17;;;;;;;5.30;4.90;;;22.70;90.30;;;;;;5032936;28;20479;-63